sensor_id;sensor_type;location;lat;lon;timestamp;pressure;altitude;pressure_sealevel;temperature;humidity
77216;BME280;66210;53.282;9.864;2023-12-04T00:02:01;101254.50;;;-1.96;90.09
77216;BME280;66210;53.282;9.864;2023-12-04T00:04:28;101244.75;;;-2.02;89.94
77216;BME280;66210;53.282;9.864;2023-12-04T00:06:55;101264.44;;;-1.96;89.92
77216;BME280;66210;53.282;9.864;2023-12-04T00:09:22;101267.50;;;-1.99;89.94
77216;BME280;66210;53.282;9.864;2023-12-04T00:11:51;101248.78;;;-2.11;89.67
77216;BME280;66210;53.282;9.864;2023-12-04T00:14:18;101269.34;;;-2.05;89.74
77216;BME280;66210;53.282;9.864;2023-12-04T00:16:45;101264.94;;;-2.07;89.97
77216;BME280;66210;53.282;9.864;2023-12-04T00:19:11;101261.66;;;-2.15;89.97
77216;BME280;66210;53.282;9.864;2023-12-04T00:21:38;101262.84;;;-2.12;90.26
77216;BME280;66210;53.282;9.864;2023-12-04T00:24:04;101253.63;;;-2.13;90.23
77216;BME280;66210;53.282;9.864;2023-12-04T00:26:31;101231.53;;;-2.25;90.22
77216;BME280;66210;53.282;9.864;2023-12-04T00:28:58;101244.94;;;-2.16;89.99
77216;BME280;66210;53.282;9.864;2023-12-04T00:31:24;101236.81;;;-2.22;90.27
77216;BME280;66210;53.282;9.864;2023-12-04T00:33:51;101241.97;;;-2.21;90.29
77216;BME280;66210;53.282;9.864;2023-12-04T00:36:17;101241.22;;;-2.20;90.29
77216;BME280;66210;53.282;9.864;2023-12-04T00:38:46;101236.13;;;-2.21;90.33
77216;BME280;66210;53.282;9.864;2023-12-04T00:41:12;101226.25;;;-2.28;90.24
77216;BME280;66210;53.282;9.864;2023-12-04T00:43:39;101232.09;;;-2.28;90.06
77216;BME280;66210;53.282;9.864;2023-12-04T00:46:05;101228.75;;;-2.28;90.15
77216;BME280;66210;53.282;9.864;2023-12-04T00:48:32;101196.78;;;-2.48;90.39
77216;BME280;66210;53.282;9.864;2023-12-04T00:50:59;101219.75;;;-2.35;90.02
77216;BME280;66210;53.282;9.864;2023-12-04T00:53:25;101211.06;;;-2.39;90.24
77216;BME280;66210;53.282;9.864;2023-12-04T00:55:52;101229.13;;;-2.33;90.22
77216;BME280;66210;53.282;9.864;2023-12-04T00:58:19;101215.00;;;-2.41;90.43
77216;BME280;66210;53.282;9.864;2023-12-04T01:00:45;101221.59;;;-2.41;90.38
77216;BME280;66210;53.282;9.864;2023-12-04T01:03:15;101198.81;;;-2.53;90.13
77216;BME280;66210;53.282;9.864;2023-12-04T01:05:41;101220.72;;;-2.42;90.21
77216;BME280;66210;53.282;9.864;2023-12-04T01:08:08;101210.59;;;-2.43;90.32
77216;BME280;66210;53.282;9.864;2023-12-04T01:10:35;101215.09;;;-2.48;90.37
77216;BME280;66210;53.282;9.864;2023-12-04T01:13:01;101189.00;;;-2.67;90.45
77216;BME280;66210;53.282;9.864;2023-12-04T01:15:28;101211.06;;;-2.55;90.30
77216;BME280;66210;53.282;9.864;2023-12-04T01:17:55;101195.50;;;-2.61;90.36
77216;BME280;66210;53.282;9.864;2023-12-04T01:20:22;101213.88;;;-2.52;90.17
77216;BME280;66210;53.282;9.864;2023-12-04T01:22:49;101207.38;;;-2.58;90.39
77216;BME280;66210;53.282;9.864;2023-12-04T01:25:16;101197.97;;;-2.61;90.16
77216;BME280;66210;53.282;9.864;2023-12-04T01:27:42;101206.00;;;-2.63;89.99
77216;BME280;66210;53.282;9.864;2023-12-04T01:30:09;101204.09;;;-2.66;90.24
77216;BME280;66210;53.282;9.864;2023-12-04T01:32:36;101194.34;;;-2.72;90.38
77216;BME280;66210;53.282;9.864;2023-12-04T01:35:03;101199.50;;;-2.70;90.43
77216;BME280;66210;53.282;9.864;2023-12-04T01:37:30;101195.78;;;-2.74;90.64
77216;BME280;66210;53.282;9.864;2023-12-04T01:39:56;101192.78;;;-2.71;90.52
77216;BME280;66210;53.282;9.864;2023-12-04T01:42:23;101194.69;;;-2.68;90.43
77216;BME280;66210;53.282;9.864;2023-12-04T01:44:49;101192.59;;;-2.73;90.42
77216;BME280;66210;53.282;9.864;2023-12-04T01:47:17;101195.00;;;-2.65;90.30
77216;BME280;66210;53.282;9.864;2023-12-04T01:49:44;101182.09;;;-2.70;90.90
77216;BME280;66210;53.282;9.864;2023-12-04T01:52:11;101177.59;;;-2.65;90.41
77216;BME280;66210;53.282;9.864;2023-12-04T01:54:38;101164.38;;;-2.73;90.33
77216;BME280;66210;53.282;9.864;2023-12-04T01:57:05;101169.44;;;-2.64;90.55
77216;BME280;66210;53.282;9.864;2023-12-04T01:59:32;101146.06;;;-2.74;90.48
77216;BME280;66210;53.282;9.864;2023-12-04T02:01:59;101160.53;;;-2.62;90.48
77216;BME280;66210;53.282;9.864;2023-12-04T02:04:27;101160.84;;;-2.59;90.29
77216;BME280;66210;53.282;9.864;2023-12-04T02:06:54;101143.34;;;-2.68;90.21
77216;BME280;66210;53.282;9.864;2023-12-04T02:09:21;101156.09;;;-2.65;90.15
77216;BME280;66210;53.282;9.864;2023-12-04T02:11:48;101142.00;;;-2.73;90.31
77216;BME280;66210;53.282;9.864;2023-12-04T02:14:16;101139.50;;;-2.73;90.29
77216;BME280;66210;53.282;9.864;2023-12-04T02:16:43;101140.78;;;-2.77;90.41
77216;BME280;66210;53.282;9.864;2023-12-04T02:19:12;101089.78;;;-3.05;90.44
77216;BME280;66210;53.282;9.864;2023-12-04T02:21:39;101129.66;;;-2.80;90.71
77216;BME280;66210;53.282;9.864;2023-12-04T02:24:06;101120.22;;;-2.83;90.45
77216;BME280;66210;53.282;9.864;2023-12-04T02:26:39;101123.44;;;-2.84;90.64
77216;BME280;66210;53.282;9.864;2023-12-04T02:29:11;101116.56;;;-2.86;90.83
77216;BME280;66210;53.282;9.864;2023-12-04T02:31:41;101111.03;;;-2.84;90.80
77216;BME280;66210;53.282;9.864;2023-12-04T02:34:10;101087.19;;;-2.98;90.64
77216;BME280;66210;53.282;9.864;2023-12-04T02:36:38;101107.25;;;-2.80;90.74
77216;BME280;66210;53.282;9.864;2023-12-04T02:39:07;101112.22;;;-2.80;90.64
77216;BME280;66210;53.282;9.864;2023-12-04T02:41:34;101109.31;;;-2.76;90.82
77216;BME280;66210;53.282;9.864;2023-12-04T02:44:01;101092.47;;;-2.79;90.63
77216;BME280;66210;53.282;9.864;2023-12-04T02:46:27;101095.31;;;-2.76;90.78
77216;BME280;66210;53.282;9.864;2023-12-04T02:48:54;101081.97;;;-2.76;90.89
77216;BME280;66210;53.282;9.864;2023-12-04T02:51:21;101092.34;;;-2.64;90.66
77216;BME280;66210;53.282;9.864;2023-12-04T02:53:48;101087.19;;;-2.66;90.97
77216;BME280;66210;53.282;9.864;2023-12-04T02:56:15;101084.13;;;-2.63;90.66
77216;BME280;66210;53.282;9.864;2023-12-04T02:58:41;101086.78;;;-2.62;90.76
77216;BME280;66210;53.282;9.864;2023-12-04T03:01:08;101078.44;;;-2.62;90.66
77216;BME280;66210;53.282;9.864;2023-12-04T03:03:35;101071.38;;;-2.66;90.56
77216;BME280;66210;53.282;9.864;2023-12-04T03:06:02;101072.25;;;-2.66;90.76
77216;BME280;66210;53.282;9.864;2023-12-04T03:08:29;101060.53;;;-2.67;90.90
77216;BME280;66210;53.282;9.864;2023-12-04T03:10:56;101060.88;;;-2.64;90.91
77216;BME280;66210;53.282;9.864;2023-12-04T03:13:23;101044.91;;;-2.66;90.82
77216;BME280;66210;53.282;9.864;2023-12-04T03:15:49;101050.75;;;-2.65;90.95
77216;BME280;66210;53.282;9.864;2023-12-04T03:18:16;101039.13;;;-2.74;90.71
77216;BME280;66210;53.282;9.864;2023-12-04T03:20:43;101048.09;;;-2.67;90.78
77216;BME280;66210;53.282;9.864;2023-12-04T03:23:10;101054.84;;;-2.66;90.77
77216;BME280;66210;53.282;9.864;2023-12-04T03:25:36;101033.84;;;-2.77;90.99
77216;BME280;66210;53.282;9.864;2023-12-04T03:28:03;101047.97;;;-2.68;90.73
77216;BME280;66210;53.282;9.864;2023-12-04T03:30:30;101027.53;;;-2.82;90.90
77216;BME280;66210;53.282;9.864;2023-12-04T03:32:57;101040.34;;;-2.70;90.94
77216;BME280;66210;53.282;9.864;2023-12-04T03:35:24;101038.59;;;-2.71;90.99
77216;BME280;66210;53.282;9.864;2023-12-04T03:37:51;101032.41;;;-2.75;91.02
77216;BME280;66210;53.282;9.864;2023-12-04T03:40:17;101033.44;;;-2.73;91.03
77216;BME280;66210;53.282;9.864;2023-12-04T03:42:44;101016.69;;;-2.82;90.84
77216;BME280;66210;53.282;9.864;2023-12-04T03:45:11;101033.28;;;-2.74;91.24
77216;BME280;66210;53.282;9.864;2023-12-04T03:47:38;101025.69;;;-2.76;91.37
77216;BME280;66210;53.282;9.864;2023-12-04T03:50:05;101014.75;;;-2.85;91.30
77216;BME280;66210;53.282;9.864;2023-12-04T03:52:32;100979.97;;;-3.01;91.42
77216;BME280;66210;53.282;9.864;2023-12-04T03:54:58;101014.53;;;-2.79;91.56
77216;BME280;66210;53.282;9.864;2023-12-04T03:57:25;101013.09;;;-2.77;91.56
77216;BME280;66210;53.282;9.864;2023-12-04T03:59:53;101011.28;;;-2.78;91.61
77216;BME280;66210;53.282;9.864;2023-12-04T04:02:19;101009.53;;;-2.79;91.44
77216;BME280;66210;53.282;9.864;2023-12-04T04:04:46;101007.94;;;-2.79;91.55
77216;BME280;66210;53.282;9.864;2023-12-04T04:07:16;101006.66;;;-2.75;91.50
77216;BME280;66210;53.282;9.864;2023-12-04T04:09:43;100982.31;;;-2.86;91.79
77216;BME280;66210;53.282;9.864;2023-12-04T04:12:10;100994.22;;;-2.75;91.63
77216;BME280;66210;53.282;9.864;2023-12-04T04:14:37;100999.91;;;-2.76;91.73
77216;BME280;66210;53.282;9.864;2023-12-04T04:17:04;100978.03;;;-2.87;91.16
77216;BME280;66210;53.282;9.864;2023-12-04T04:19:31;100958.50;;;-3.00;91.80
77216;BME280;66210;53.282;9.864;2023-12-04T04:21:58;100985.09;;;-2.83;92.30
77216;BME280;66210;53.282;9.864;2023-12-04T04:24:25;100981.91;;;-2.82;91.76
77216;BME280;66210;53.282;9.864;2023-12-04T04:26:52;100977.63;;;-2.83;92.10
77216;BME280;66210;53.282;9.864;2023-12-04T04:29:18;100977.78;;;-2.82;93.12
77216;BME280;66210;53.282;9.864;2023-12-04T04:31:45;100928.63;;;-3.09;93.11
77216;BME280;66210;53.282;9.864;2023-12-04T04:34:12;100970.91;;;-2.84;92.71
77216;BME280;66210;53.282;9.864;2023-12-04T04:36:39;100966.81;;;-2.84;92.72
77216;BME280;66210;53.282;9.864;2023-12-04T04:39:06;100958.16;;;-2.87;92.86
77216;BME280;66210;53.282;9.864;2023-12-04T04:41:33;100961.56;;;-2.78;93.67
77216;BME280;66210;53.282;9.864;2023-12-04T04:43:59;100942.53;;;-2.86;93.21
77216;BME280;66210;53.282;9.864;2023-12-04T04:46:26;100956.94;;;-2.75;93.29
77216;BME280;66210;53.282;9.864;2023-12-04T04:48:54;100938.72;;;-2.83;93.00
77216;BME280;66210;53.282;9.864;2023-12-04T04:51:21;100959.47;;;-2.66;92.67
77216;BME280;66210;53.282;9.864;2023-12-04T04:53:48;100958.91;;;-2.64;92.42
77216;BME280;66210;53.282;9.864;2023-12-04T04:56:15;100949.13;;;-2.62;92.69
77216;BME280;66210;53.282;9.864;2023-12-04T04:58:41;100941.66;;;-2.62;92.35
77216;BME280;66210;53.282;9.864;2023-12-04T05:01:08;100939.88;;;-2.63;92.97
77216;BME280;66210;53.282;9.864;2023-12-04T05:03:35;100943.88;;;-2.57;92.44
77216;BME280;66210;53.282;9.864;2023-12-04T05:06:02;100942.13;;;-2.58;93.54
77216;BME280;66210;53.282;9.864;2023-12-04T05:08:28;100929.34;;;-2.61;93.28
77216;BME280;66210;53.282;9.864;2023-12-04T05:10:55;100928.78;;;-2.58;94.23
77216;BME280;66210;53.282;9.864;2023-12-04T05:13:22;100925.41;;;-2.59;93.50
77216;BME280;66210;53.282;9.864;2023-12-04T05:15:49;100933.66;;;-2.51;93.66
77216;BME280;66210;53.282;9.864;2023-12-04T05:18:15;100938.34;;;-2.45;94.20
77216;BME280;66210;53.282;9.864;2023-12-04T05:20:42;100934.41;;;-2.43;93.96
77216;BME280;66210;53.282;9.864;2023-12-04T05:23:08;100921.34;;;-2.49;93.56
77216;BME280;66210;53.282;9.864;2023-12-04T05:25:35;100934.13;;;-2.38;93.66
77216;BME280;66210;53.282;9.864;2023-12-04T05:28:10;100913.47;;;-2.45;93.96
77216;BME280;66210;53.282;9.864;2023-12-04T05:30:37;100913.94;;;-2.41;94.56
77216;BME280;66210;53.282;9.864;2023-12-04T05:33:03;100908.81;;;-2.42;94.16
77216;BME280;66210;53.282;9.864;2023-12-04T05:35:30;100911.91;;;-2.36;95.34
77216;BME280;66210;53.282;9.864;2023-12-04T05:38:00;100913.25;;;-2.31;95.60
77216;BME280;66210;53.282;9.864;2023-12-04T05:40:27;100878.50;;;-2.47;95.57
77216;BME280;66210;53.282;9.864;2023-12-04T05:42:53;100902.41;;;-2.32;94.26
77216;BME280;66210;53.282;9.864;2023-12-04T05:45:20;100888.22;;;-2.33;94.25
77216;BME280;66210;53.282;9.864;2023-12-04T05:47:47;100904.22;;;-2.22;95.15
77216;BME280;66210;53.282;9.864;2023-12-04T05:50:13;100903.66;;;-2.19;95.57
77216;BME280;66210;53.282;9.864;2023-12-04T05:52:40;100897.22;;;-2.17;95.31
77216;BME280;66210;53.282;9.864;2023-12-04T05:55:07;100893.69;;;-2.19;95.88
77216;BME280;66210;53.282;9.864;2023-12-04T05:57:34;100899.41;;;-2.12;95.78
77216;BME280;66210;53.282;9.864;2023-12-04T06:00:00;100849.13;;;-2.34;94.80
77216;BME280;66210;53.282;9.864;2023-12-04T06:02:27;100887.25;;;-2.09;95.82
77216;BME280;66210;53.282;9.864;2023-12-04T06:04:56;100859.97;;;-2.24;95.22
77216;BME280;66210;53.282;9.864;2023-12-04T06:07:23;100877.63;;;-2.05;95.43
77216;BME280;66210;53.282;9.864;2023-12-04T06:09:50;100873.34;;;-2.06;95.43
77216;BME280;66210;53.282;9.864;2023-12-04T06:12:16;100873.34;;;-2.06;96.04
77216;BME280;66210;53.282;9.864;2023-12-04T06:14:43;100869.13;;;-2.07;95.81
77216;BME280;66210;53.282;9.864;2023-12-04T06:17:09;100866.31;;;-2.02;95.66
77216;BME280;66210;53.282;9.864;2023-12-04T06:19:36;100876.19;;;-1.95;95.57
77216;BME280;66210;53.282;9.864;2023-12-04T06:22:03;100862.53;;;-1.98;96.01
77216;BME280;66210;53.282;9.864;2023-12-04T06:24:30;100876.47;;;-1.92;96.31
77216;BME280;66210;53.282;9.864;2023-12-04T06:26:58;100861.25;;;-1.95;96.14
77216;BME280;66210;53.282;9.864;2023-12-04T06:29:24;100832.19;;;-2.12;96.40
77216;BME280;66210;53.282;9.864;2023-12-04T06:31:51;100841.44;;;-2.02;96.42
77216;BME280;66210;53.282;9.864;2023-12-04T06:34:18;100858.75;;;-1.86;96.78
77216;BME280;66210;53.282;9.864;2023-12-04T06:36:45;100820.19;;;-2.07;96.54
77216;BME280;66210;53.282;9.864;2023-12-04T06:39:13;100831.03;;;-1.98;96.35
77216;BME280;66210;53.282;9.864;2023-12-04T06:41:40;100868.88;;;-1.76;96.87
77216;BME280;66210;53.282;9.864;2023-12-04T06:44:08;100836.91;;;-1.89;96.01
77216;BME280;66210;53.282;9.864;2023-12-04T06:46:38;100856.69;;;-1.73;95.92
77216;BME280;66210;53.282;9.864;2023-12-04T06:49:06;100852.91;;;-1.69;96.70
77216;BME280;66210;53.282;9.864;2023-12-04T06:51:33;100845.28;;;-1.71;96.78
77216;BME280;66210;53.282;9.864;2023-12-04T06:54:00;100836.34;;;-1.77;96.58
77216;BME280;66210;53.282;9.864;2023-12-04T06:56:27;100805.88;;;-1.92;96.71
77216;BME280;66210;53.282;9.864;2023-12-04T06:58:54;100846.47;;;-1.67;96.13
77216;BME280;66210;53.282;9.864;2023-12-04T07:01:21;100838.72;;;-1.70;96.21
77216;BME280;66210;53.282;9.864;2023-12-04T07:03:48;100813.91;;;-1.77;96.25
77216;BME280;66210;53.282;9.864;2023-12-04T07:06:15;100837.81;;;-1.62;96.17
77216;BME280;66210;53.282;9.864;2023-12-04T07:08:43;100821.13;;;-1.72;96.29
77216;BME280;66210;53.282;9.864;2023-12-04T07:11:09;100847.50;;;-1.56;96.23
77216;BME280;66210;53.282;9.864;2023-12-04T07:13:36;100848.38;;;-1.56;96.60
77216;BME280;66210;53.282;9.864;2023-12-04T07:16:03;100839.59;;;-1.61;96.30
77216;BME280;66210;53.282;9.864;2023-12-04T07:18:29;100857.75;;;-1.53;96.39
77216;BME280;66210;53.282;9.864;2023-12-04T07:20:56;100844.25;;;-1.55;97.23
77216;BME280;66210;53.282;9.864;2023-12-04T07:23:23;100824.78;;;-1.68;96.22
77216;BME280;66210;53.282;9.864;2023-12-04T07:25:53;100850.44;;;-1.52;96.75
77216;BME280;66210;53.282;9.864;2023-12-04T07:28:20;100853.63;;;-1.53;96.80
77216;BME280;66210;53.282;9.864;2023-12-04T07:30:46;100831.78;;;-1.64;96.25
77216;BME280;66210;53.282;9.864;2023-12-04T07:33:13;100849.41;;;-1.54;96.84
77216;BME280;66210;53.282;9.864;2023-12-04T07:35:40;100848.66;;;-1.53;96.57
77216;BME280;66210;53.282;9.864;2023-12-04T07:38:06;100830.22;;;-1.63;96.39
77216;BME280;66210;53.282;9.864;2023-12-04T07:40:33;100831.69;;;-1.65;96.94
77216;BME280;66210;53.282;9.864;2023-12-04T07:43:00;100858.63;;;-1.53;96.59
77216;BME280;66210;53.282;9.864;2023-12-04T07:45:27;100862.00;;;-1.52;96.52
77216;BME280;66210;53.282;9.864;2023-12-04T07:47:53;100850.09;;;-1.55;96.55
77216;BME280;66210;53.282;9.864;2023-12-04T07:50:20;100838.72;;;-1.61;96.97
77216;BME280;66210;53.282;9.864;2023-12-04T07:52:47;100852.75;;;-1.53;96.95
77216;BME280;66210;53.282;9.864;2023-12-04T07:55:14;100840.28;;;-1.62;97.20
77216;BME280;66210;53.282;9.864;2023-12-04T07:57:41;100854.38;;;-1.54;96.70
77216;BME280;66210;53.282;9.864;2023-12-04T08:00:08;100863.91;;;-1.50;96.87
77216;BME280;66210;53.282;9.864;2023-12-04T08:02:40;100852.03;;;-1.52;96.92
77216;BME280;66210;53.282;9.864;2023-12-04T08:05:08;100857.47;;;-1.48;96.53
77216;BME280;66210;53.282;9.864;2023-12-04T08:07:36;100846.03;;;-1.54;96.88
77216;BME280;66210;53.282;9.864;2023-12-04T08:10:04;100850.00;;;-1.48;96.40
77216;BME280;66210;53.282;9.864;2023-12-04T08:12:30;100849.25;;;-1.47;97.24
77216;BME280;66210;53.282;9.864;2023-12-04T08:14:57;100832.66;;;-1.55;96.65
77216;BME280;66210;53.282;9.864;2023-12-04T08:17:23;100823.75;;;-1.61;96.42
77216;BME280;66210;53.282;9.864;2023-12-04T08:19:50;100840.63;;;-1.50;97.05
77216;BME280;66210;53.282;9.864;2023-12-04T08:22:19;100810.13;;;-1.65;96.65
77216;BME280;66210;53.282;9.864;2023-12-04T08:24:46;100806.75;;;-1.65;96.89
77216;BME280;66210;53.282;9.864;2023-12-04T08:27:13;100808.22;;;-1.68;97.15
77216;BME280;66210;53.282;9.864;2023-12-04T08:29:40;100838.56;;;-1.45;96.74
77216;BME280;66210;53.282;9.864;2023-12-04T08:32:07;100840.31;;;-1.44;96.83
77216;BME280;66210;53.282;9.864;2023-12-04T08:34:33;100840.56;;;-1.41;97.22
77216;BME280;66210;53.282;9.864;2023-12-04T08:37:02;100835.03;;;-1.48;97.01
77216;BME280;66210;53.282;9.864;2023-12-04T08:39:28;100828.16;;;-1.50;97.49
77216;BME280;66210;53.282;9.864;2023-12-04T08:41:55;100840.31;;;-1.44;96.96
77216;BME280;66210;53.282;9.864;2023-12-04T08:44:30;100818.75;;;-1.53;97.52
77216;BME280;66210;53.282;9.864;2023-12-04T08:46:56;100842.78;;;-1.44;97.54
77216;BME280;66210;53.282;9.864;2023-12-04T08:49:24;100842.94;;;-1.43;97.69
77216;BME280;66210;53.282;9.864;2023-12-04T08:52:05;100832.97;;;-1.43;98.21
77216;BME280;66210;53.282;9.864;2023-12-04T08:54:32;100813.03;;;-1.52;97.60
77216;BME280;66210;53.282;9.864;2023-12-04T08:57:00;100821.53;;;-1.41;97.83
77216;BME280;66210;53.282;9.864;2023-12-04T08:59:31;100828.56;;;-1.37;97.73
77216;BME280;66210;53.282;9.864;2023-12-04T09:01:57;100818.59;;;-1.37;97.47
77216;BME280;66210;53.282;9.864;2023-12-04T09:04:24;100795.28;;;-1.46;97.71
77216;BME280;66210;53.282;9.864;2023-12-04T09:06:52;100803.63;;;-1.37;97.58
77216;BME280;66210;53.282;9.864;2023-12-04T09:09:21;100803.63;;;-1.37;97.19
77216;BME280;66210;53.282;9.864;2023-12-04T09:11:48;100818.56;;;-1.28;97.14
77216;BME280;66210;53.282;9.864;2023-12-04T09:14:15;100806.59;;;-1.32;97.55
77216;BME280;66210;53.282;9.864;2023-12-04T09:16:43;100795.59;;;-1.34;97.33
77216;BME280;66210;53.282;9.864;2023-12-04T09:19:09;100777.72;;;-1.39;96.97
77216;BME280;66210;53.282;9.864;2023-12-04T09:21:37;100798.78;;;-1.27;96.86
77216;BME280;66210;53.282;9.864;2023-12-04T09:24:05;100789.13;;;-1.32;96.96
77216;BME280;66210;53.282;9.864;2023-12-04T09:26:31;100810.22;;;-1.20;96.97
77216;BME280;66210;53.282;9.864;2023-12-04T09:28:59;100778.00;;;-1.36;97.20
77216;BME280;66210;53.282;9.864;2023-12-04T09:31:25;100806.53;;;-1.15;96.54
77216;BME280;66210;53.282;9.864;2023-12-04T09:33:54;100793.50;;;-1.21;96.74
77216;BME280;66210;53.282;9.864;2023-12-04T09:36:20;100802.56;;;-1.13;96.37
77216;BME280;66210;53.282;9.864;2023-12-04T09:38:47;100807.44;;;-1.14;96.55
77216;BME280;66210;53.282;9.864;2023-12-04T09:41:15;100810.47;;;-1.08;96.17
77216;BME280;66210;53.282;9.864;2023-12-04T09:43:43;100816.63;;;-1.05;96.43
77216;BME280;66210;53.282;9.864;2023-12-04T09:46:10;100808.41;;;-1.03;95.99
77216;BME280;66210;53.282;9.864;2023-12-04T09:48:38;100795.50;;;-1.08;96.07
77216;BME280;66210;53.282;9.864;2023-12-04T09:51:08;100784.06;;;-1.06;96.39
77216;BME280;66210;53.282;9.864;2023-12-04T09:53:39;100800.03;;;-0.95;96.00
77216;BME280;66210;53.282;9.864;2023-12-04T09:56:08;100798.81;;;-0.90;95.98
77216;BME280;66210;53.282;9.864;2023-12-04T09:58:39;100796.47;;;-0.89;95.72
77216;BME280;66210;53.282;9.864;2023-12-04T10:01:06;100793.22;;;-0.88;95.37
77216;BME280;66210;53.282;9.864;2023-12-04T10:03:35;100753.53;;;-1.03;95.41
77216;BME280;66210;53.282;9.864;2023-12-04T10:06:02;100776.53;;;-0.89;95.28
77216;BME280;66210;53.282;9.864;2023-12-04T10:08:30;100775.50;;;-0.91;94.89
77216;BME280;66210;53.282;9.864;2023-12-04T10:10:57;100772.56;;;-0.87;94.73
77216;BME280;66210;53.282;9.864;2023-12-04T10:13:27;100767.16;;;-0.91;94.37
77216;BME280;66210;53.282;9.864;2023-12-04T10:16:14;100772.72;;;-0.85;94.82
77216;BME280;66210;53.282;9.864;2023-12-04T10:18:41;100753.31;;;-0.88;94.60
77216;BME280;66210;53.282;9.864;2023-12-04T10:21:07;100764.31;;;-0.86;94.49
77216;BME280;66210;53.282;9.864;2023-12-04T10:23:43;100756.13;;;-0.85;94.18
77216;BME280;66210;53.282;9.864;2023-12-04T10:26:14;100752.00;;;-0.84;94.29
77216;BME280;66210;53.282;9.864;2023-12-04T10:28:58;100741.75;;;-0.87;93.51
77216;BME280;66210;53.282;9.864;2023-12-04T10:31:26;100709.41;;;-1.05;93.87
77216;BME280;66210;53.282;9.864;2023-12-04T10:33:54;100744.66;;;-0.82;93.37
77216;BME280;66210;53.282;9.864;2023-12-04T10:36:21;100734.69;;;-0.82;94.00
77216;BME280;66210;53.282;9.864;2023-12-04T10:38:58;100733.47;;;-0.77;93.08
77216;BME280;66210;53.282;9.864;2023-12-04T10:41:26;100728.66;;;-0.76;93.39
77216;BME280;66210;53.282;9.864;2023-12-04T10:43:55;100707.72;;;-0.87;93.17
77216;BME280;66210;53.282;9.864;2023-12-04T10:46:38;100729.66;;;-0.74;92.90
77216;BME280;66210;53.282;9.864;2023-12-04T10:49:05;100723.91;;;-0.73;92.83
77216;BME280;66210;53.282;9.864;2023-12-04T10:51:33;100727.59;;;-0.69;92.92
77216;BME280;66210;53.282;9.864;2023-12-04T10:54:01;100719.34;;;-0.68;92.82
77216;BME280;66210;53.282;9.864;2023-12-04T10:56:36;100724.19;;;-0.70;92.07
77216;BME280;66210;53.282;9.864;2023-12-04T10:59:11;100694.38;;;-0.87;92.53
77216;BME280;66210;53.282;9.864;2023-12-04T11:01:39;100717.59;;;-0.69;92.33
77216;BME280;66210;53.282;9.864;2023-12-04T11:04:14;100687.41;;;-0.81;92.53
77216;BME280;66210;53.282;9.864;2023-12-04T11:06:46;100690.63;;;-0.73;92.39
77216;BME280;66210;53.282;9.864;2023-12-04T11:09:17;100707.13;;;-0.65;91.98
77216;BME280;66210;53.282;9.864;2023-12-04T11:11:48;100708.16;;;-0.63;92.29
77216;BME280;66210;53.282;9.864;2023-12-04T11:14:21;100702.59;;;-0.60;92.05
77216;BME280;66210;53.282;9.864;2023-12-04T11:16:55;100668.63;;;-0.77;92.17
77216;BME280;66210;53.282;9.864;2023-12-04T11:19:29;100698.59;;;-0.58;91.96
77216;BME280;66210;53.282;9.864;2023-12-04T11:21:58;100700.34;;;-0.57;91.64
77216;BME280;66210;53.282;9.864;2023-12-04T11:24:25;100678.81;;;-0.66;92.18
77216;BME280;66210;53.282;9.864;2023-12-04T11:26:52;100689.16;;;-0.52;92.06
77216;BME280;66210;53.282;9.864;2023-12-04T11:29:20;100654.94;;;-0.72;91.95
77216;BME280;66210;53.282;9.864;2023-12-04T11:31:47;100655.75;;;-0.63;91.99
77216;BME280;66210;53.282;9.864;2023-12-04T11:34:14;100670.06;;;-0.52;92.23
77216;BME280;66210;53.282;9.864;2023-12-04T11:36:44;100686.00;;;-0.41;92.07
77216;BME280;66210;53.282;9.864;2023-12-04T11:39:11;100668.53;;;-0.41;91.95
77216;BME280;66210;53.282;9.864;2023-12-04T11:41:40;100682.72;;;-0.31;91.97
77216;BME280;66210;53.282;9.864;2023-12-04T11:44:13;100683.69;;;-0.29;91.45
77216;BME280;66210;53.282;9.864;2023-12-04T11:46:56;100666.72;;;-0.33;91.31
77216;BME280;66210;53.282;9.864;2023-12-04T11:49:30;100668.44;;;-0.32;91.51
77216;BME280;66210;53.282;9.864;2023-12-04T11:51:58;100660.81;;;-0.34;90.63
77216;BME280;66210;53.282;9.864;2023-12-04T11:54:26;100639.53;;;-0.49;90.74
77216;BME280;66210;53.282;9.864;2023-12-04T11:57:20;100653.84;;;-0.38;90.95
77216;BME280;66210;53.282;9.864;2023-12-04T11:59:47;100663.59;;;-0.31;90.80
77216;BME280;66210;53.282;9.864;2023-12-04T12:02:14;100659.47;;;-0.30;90.48
77216;BME280;66210;53.282;9.864;2023-12-04T12:04:41;100659.63;;;-0.29;90.65
77216;BME280;66210;53.282;9.864;2023-12-04T12:07:09;100608.56;;;-0.51;90.58
77216;BME280;66210;53.282;9.864;2023-12-04T12:09:35;100636.00;;;-0.32;90.44
77216;BME280;66210;53.282;9.864;2023-12-04T12:12:03;100630.13;;;-0.33;90.49
77216;BME280;66210;53.282;9.864;2023-12-04T12:14:31;100616.66;;;-0.35;90.82
77216;BME280;66210;53.282;9.864;2023-12-04T12:16:59;100631.94;;;-0.22;90.54
77216;BME280;66210;53.282;9.864;2023-12-04T12:19:27;100623.91;;;-0.28;90.43
77216;BME280;66210;53.282;9.864;2023-12-04T12:21:54;100634.19;;;-0.25;89.80
77216;BME280;66210;53.282;9.864;2023-12-04T12:24:23;100616.78;;;-0.33;89.55
77216;BME280;66210;53.282;9.864;2023-12-04T12:26:50;100610.72;;;-0.27;89.79
77216;BME280;66210;53.282;9.864;2023-12-04T12:29:17;100573.81;;;-0.39;90.27
77216;BME280;66210;53.282;9.864;2023-12-04T12:31:43;100612.91;;;-0.11;90.28
77216;BME280;66210;53.282;9.864;2023-12-04T12:34:12;100589.91;;;-0.17;90.35
77216;BME280;66210;53.282;9.864;2023-12-04T12:36:40;100593.56;;;-0.03;90.74
77216;BME280;66210;53.282;9.864;2023-12-04T12:39:06;100588.31;;;-0.06;90.79
77216;BME280;66210;53.282;9.864;2023-12-04T12:41:35;100589.72;;;0.01;90.28
77216;BME280;66210;53.282;9.864;2023-12-04T12:44:01;100568.97;;;-0.09;89.73
77216;BME280;66210;53.282;9.864;2023-12-04T12:46:29;100571.47;;;-0.09;89.20
77216;BME280;66210;53.282;9.864;2023-12-04T12:48:57;100565.84;;;-0.06;89.50
77216;BME280;66210;53.282;9.864;2023-12-04T12:51:25;100565.47;;;-0.01;89.83
77216;BME280;66210;53.282;9.864;2023-12-04T12:53:52;100568.25;;;0.03;89.73